VLG862K LEZL-GCFV
Flight info
| Callsign | VLG862K |
|---|---|
| Flight time | 1h 52m |
| Altitude | 35000 |
| Route | CLANA N857 KORNO UN857 TERTO |
| Aircraft | A320/M-SDE3FGHIRWY/LB1 |
Departure
| Time | 2026-04-25 15:27 |
|---|---|
| Airport | Seville Airport (LEZL) |
Arrival
| Time | 2026-04-25 17:20 |
|---|---|
| Airport | Fuerteventura Airport (GCFV) |
| Time | Latitude | Longitude | Altitude | Speed | Heading |
|---|---|---|---|---|---|
| 2026-04-25 15:10 | 37.42186 | -5.89984 | 94 ft | 0 kts | 314° |
| 2026-04-25 15:17 | 37.42151 | -5.89938 | 94 ft | 4 kts | 308° |
| 2026-04-25 15:17 | 37.42142 | -5.89921 | 93 ft | 2 kts | 271° |
| 2026-04-25 15:17 | 37.42144 | -5.89908 | 93 ft | 2 kts | 224° |
| 2026-04-25 15:18 | 37.42149 | -5.89901 | 93 ft | 0 kts | 227° |
| 2026-04-25 15:20 | 37.42131 | -5.89925 | 94 ft | 6 kts | 222° |
| 2026-04-25 15:21 | 37.42100 | -5.89934 | 94 ft | 4 kts | 174° |
| 2026-04-25 15:21 | 37.42067 | -5.89917 | 96 ft | 8 kts | 158° |
| 2026-04-25 15:21 | 37.42018 | -5.89892 | 96 ft | 7 kts | 158° |
| 2026-04-25 15:21 | 37.41982 | -5.89839 | 97 ft | 9 kts | 101° |
| 2026-04-25 15:22 | 37.41981 | -5.89740 | 97 ft | 13 kts | 89° |
| 2026-04-25 15:22 | 37.41982 | -5.89613 | 97 ft | 16 kts | 90° |
| 2026-04-25 15:22 | 37.41982 | -5.89455 | 98 ft | 20 kts | 90° |
| 2026-04-25 15:22 | 37.41983 | -5.89277 | 99 ft | 21 kts | 89° |
| 2026-04-25 15:23 | 37.41983 | -5.89092 | 101 ft | 21 kts | 90° |
| 2026-04-25 15:23 | 37.41984 | -5.88902 | 102 ft | 22 kts | 89° |
| 2026-04-25 15:23 | 37.41985 | -5.88706 | 103 ft | 23 kts | 90° |
| 2026-04-25 15:23 | 37.41985 | -5.88505 | 104 ft | 23 kts | 90° |
| 2026-04-25 15:24 | 37.41986 | -5.88299 | 105 ft | 24 kts | 90° |
| 2026-04-25 15:24 | 37.41987 | -5.88089 | 106 ft | 24 kts | 90° |
| 2026-04-25 15:24 | 37.41988 | -5.87881 | 107 ft | 24 kts | 90° |
| 2026-04-25 15:24 | 37.41988 | -5.87759 | 108 ft | 20 kts | 90° |
| 2026-04-25 15:25 | 37.41988 | -5.87574 | 109 ft | 12 kts | 91° |
| 2026-04-25 15:25 | 37.41963 | -5.87479 | 110 ft | 12 kts | 121° |
| 2026-04-25 15:25 | 37.41899 | -5.87427 | 115 ft | 10 kts | 171° |
| 2026-04-25 15:25 | 37.41834 | -5.87451 | 114 ft | 10 kts | 213° |
| 2026-04-25 15:26 | 37.41800 | -5.87507 | 116 ft | 8 kts | 259° |
| 2026-04-25 15:26 | 37.41800 | -5.87591 | 115 ft | 18 kts | 269° |
| 2026-04-25 15:26 | 37.41799 | -5.88083 | 108 ft | 92 kts | 270° |
| 2026-04-25 15:26 | 37.41796 | -5.89147 | 101 ft | 149 kts | 269° |
| 2026-04-25 15:27 | 37.41795 | -5.90593 | 382 ft | 166 kts | 272° |
| 2026-04-25 15:27 | 37.41911 | -5.92017 | 1034 ft | 165 kts | 279° |
| 2026-04-25 15:27 | 37.42404 | -5.94895 | 2112 ft | 181 kts | 282° |
| 2026-04-25 15:28 | 37.42691 | -5.96534 | 2437 ft | 204 kts | 282° |
| 2026-04-25 15:28 | 37.43006 | -5.98379 | 2716 ft | 228 kts | 281° |
| 2026-04-25 15:28 | 37.43348 | -6.00433 | 3090 ft | 252 kts | 282° |
| 2026-04-25 15:28 | 37.43715 | -6.02659 | 3687 ft | 265 kts | 281° |
| 2026-04-25 15:29 | 37.43735 | -6.04982 | 4435 ft | 272 kts | 253° |
| 2026-04-25 15:29 | 37.42737 | -6.06992 | 5204 ft | 277 kts | 219° |
| 2026-04-25 15:29 | 37.40999 | -6.07990 | 6006 ft | 278 kts | 187° |
| 2026-04-25 15:29 | 37.39067 | -6.08034 | 6801 ft | 279 kts | 173° |
| 2026-04-25 15:30 | 37.37786 | -6.07830 | 7326 ft | 281 kts | 169° |
| 2026-04-25 15:30 | 37.35186 | -6.07276 | 8377 ft | 286 kts | 169° |
| 2026-04-25 15:30 | 37.33208 | -6.06894 | 9171 ft | 290 kts | 170° |
| 2026-04-25 15:30 | 37.31192 | -6.06582 | 9956 ft | 294 kts | 172° |
| 2026-04-25 15:31 | 37.29122 | -6.06332 | 10427 ft | 309 kts | 173° |
| 2026-04-25 15:31 | 37.26898 | -6.06118 | 10632 ft | 332 kts | 174° |
| 2026-04-25 15:31 | 37.24547 | -6.05931 | 11096 ft | 343 kts | 175° |
| 2026-04-25 15:31 | 37.22148 | -6.05758 | 11757 ft | 348 kts | 175° |
| 2026-04-25 15:32 | 37.19718 | -6.05585 | 12449 ft | 352 kts | 175° |
| 2026-04-25 15:32 | 37.17255 | -6.05690 | 13138 ft | 358 kts | 187° |
| 2026-04-25 15:32 | 37.14833 | -6.06468 | 13792 ft | 363 kts | 200° |
| 2026-04-25 15:33 | 37.10541 | -6.09915 | 15055 ft | 374 kts | 219° |
| 2026-04-25 15:33 | 37.08534 | -6.12016 | 15732 ft | 378 kts | 220° |
| 2026-04-25 15:33 | 37.06502 | -6.14140 | 16378 ft | 382 kts | 220° |
| 2026-04-25 15:33 | 37.04450 | -6.16281 | 16967 ft | 386 kts | 220° |
| 2026-04-25 15:34 | 37.02373 | -6.18441 | 17530 ft | 390 kts | 220° |
| 2026-04-25 15:34 | 37.00288 | -6.20627 | 18104 ft | 393 kts | 220° |
| 2026-04-25 15:34 | 36.98192 | -6.22850 | 18624 ft | 396 kts | 220° |
| 2026-04-25 15:34 | 36.96802 | -6.24334 | 18960 ft | 398 kts | 221° |
| 2026-04-25 15:35 | 36.91863 | -6.29607 | 20214 ft | 405 kts | 221° |
| 2026-04-25 15:35 | 36.89708 | -6.31896 | 20750 ft | 408 kts | 221° |
| 2026-04-25 15:35 | 36.87538 | -6.34196 | 21261 ft | 411 kts | 221° |
| 2026-04-25 15:36 | 36.83144 | -6.38834 | 22271 ft | 416 kts | 221° |
| 2026-04-25 15:36 | 36.80919 | -6.41173 | 22755 ft | 419 kts | 221° |
| 2026-04-25 15:36 | 36.78683 | -6.43526 | 23242 ft | 422 kts | 221° |
| 2026-04-25 15:37 | 36.76431 | -6.45899 | 23695 ft | 425 kts | 221° |
| 2026-04-25 15:37 | 36.74168 | -6.48281 | 24087 ft | 427 kts | 222° |
| 2026-04-25 15:37 | 36.71891 | -6.50673 | 24486 ft | 429 kts | 223° |
| 2026-04-25 15:37 | 36.69606 | -6.53073 | 24866 ft | 431 kts | 223° |
| 2026-04-25 15:38 | 36.67310 | -6.55485 | 25233 ft | 433 kts | 223° |
| 2026-04-25 15:38 | 36.65002 | -6.57910 | 25573 ft | 435 kts | 223° |
| 2026-04-25 15:38 | 36.62685 | -6.60345 | 25924 ft | 437 kts | 223° |
| 2026-04-25 15:38 | 36.60369 | -6.62778 | 26266 ft | 439 kts | 223° |
| 2026-04-25 15:39 | 36.58027 | -6.65237 | 26614 ft | 441 kts | 223° |
| 2026-04-25 15:39 | 36.55670 | -6.67701 | 26953 ft | 443 kts | 223° |
| 2026-04-25 15:39 | 36.53294 | -6.70181 | 27299 ft | 445 kts | 224° |
| 2026-04-25 15:39 | 36.50917 | -6.72660 | 27626 ft | 447 kts | 224° |
| 2026-04-25 15:40 | 36.49335 | -6.74308 | 27835 ft | 449 kts | 224° |
| 2026-04-25 15:40 | 36.47715 | -6.75989 | 28058 ft | 450 kts | 224° |
| 2026-04-25 15:40 | 36.43693 | -6.80136 | 28574 ft | 454 kts | 224° |
| 2026-04-25 15:40 | 36.41259 | -6.82637 | 28874 ft | 456 kts | 224° |
| 2026-04-25 15:41 | 36.38809 | -6.85150 | 29151 ft | 458 kts | 224° |
| 2026-04-25 15:41 | 36.36346 | -6.87676 | 29418 ft | 460 kts | 224° |
| 2026-04-25 15:41 | 36.33914 | -6.90175 | 29690 ft | 462 kts | 224° |
| 2026-04-25 15:41 | 36.31439 | -6.92721 | 29961 ft | 464 kts | 224° |
| 2026-04-25 15:42 | 36.28907 | -6.95322 | 30200 ft | 465 kts | 224° |
| 2026-04-25 15:42 | 36.26411 | -6.97878 | 30465 ft | 466 kts | 224° |
| 2026-04-25 15:42 | 36.23911 | -7.00434 | 30712 ft | 467 kts | 224° |
| 2026-04-25 15:42 | 36.21437 | -7.02960 | 30940 ft | 467 kts | 224° |
| 2026-04-25 15:43 | 36.18897 | -7.05552 | 31198 ft | 467 kts | 224° |
| 2026-04-25 15:43 | 36.16439 | -7.08060 | 31527 ft | 465 kts | 224° |
| 2026-04-25 15:43 | 36.13939 | -7.10611 | 31857 ft | 463 kts | 224° |
| 2026-04-25 15:43 | 36.11456 | -7.13145 | 32176 ft | 462 kts | 224° |
| 2026-04-25 15:44 | 36.08991 | -7.15659 | 32495 ft | 460 kts | 224° |
| 2026-04-25 15:44 | 36.06521 | -7.18171 | 32832 ft | 458 kts | 224° |
| 2026-04-25 15:44 | 36.04058 | -7.20670 | 33135 ft | 457 kts | 224° |
| 2026-04-25 15:44 | 36.01611 | -7.23151 | 33433 ft | 455 kts | 223° |
| 2026-04-25 15:45 | 35.99955 | -7.24831 | 33658 ft | 454 kts | 224° |
| 2026-04-25 15:45 | 35.96733 | -7.28099 | 34075 ft | 452 kts | 224° |
| 2026-04-25 15:45 | 35.94315 | -7.30553 | 34346 ft | 450 kts | 224° |
| 2026-04-25 15:45 | 35.93495 | -7.31385 | 34439 ft | 450 kts | 224° |
| 2026-04-25 15:46 | 35.89490 | -7.35451 | 34888 ft | 447 kts | 224° |
| 2026-04-25 15:46 | 35.87093 | -7.37879 | 35009 ft | 446 kts | 224° |
| 2026-04-25 15:46 | 35.82328 | -7.42685 | 35046 ft | 440 kts | 223° |
| 2026-04-25 15:47 | 35.77582 | -7.47430 | 35046 ft | 439 kts | 223° |
| 2026-04-25 15:47 | 35.72831 | -7.52159 | 35046 ft | 439 kts | 223° |
| 2026-04-25 15:48 | 35.68070 | -7.56887 | 35043 ft | 439 kts | 223° |
| 2026-04-25 15:48 | 35.63323 | -7.61611 | 35032 ft | 439 kts | 223° |
| 2026-04-25 15:49 | 35.58580 | -7.66321 | 35036 ft | 438 kts | 223° |
| 2026-04-25 15:49 | 35.53835 | -7.71028 | 35037 ft | 438 kts | 223° |
| 2026-04-25 15:50 | 35.49096 | -7.75709 | 35031 ft | 437 kts | 223° |
| 2026-04-25 15:50 | 35.44374 | -7.80381 | 35040 ft | 436 kts | 223° |
| 2026-04-25 15:51 | 35.41212 | -7.83502 | 35043 ft | 435 kts | 223° |
| 2026-04-25 15:51 | 35.34967 | -7.89725 | 35038 ft | 434 kts | 224° |
| 2026-04-25 15:52 | 35.30298 | -7.94416 | 35036 ft | 434 kts | 223° |
| 2026-04-25 15:52 | 35.25616 | -7.99102 | 35039 ft | 434 kts | 223° |
| 2026-04-25 15:53 | 35.20961 | -8.03734 | 35038 ft | 434 kts | 223° |
| 2026-04-25 15:53 | 35.16243 | -8.08409 | 35040 ft | 434 kts | 223° |
| 2026-04-25 15:54 | 35.11561 | -8.13051 | 35044 ft | 434 kts | 223° |
| 2026-04-25 15:54 | 35.06905 | -8.17667 | 35038 ft | 433 kts | 223° |
| 2026-04-25 15:55 | 35.02232 | -8.22299 | 35044 ft | 433 kts | 223° |
| 2026-04-25 15:55 | 34.97524 | -8.26952 | 35039 ft | 433 kts | 223° |
| 2026-04-25 15:56 | 34.93631 | -8.30788 | 35031 ft | 433 kts | 223° |
| 2026-04-25 15:56 | 34.88947 | -8.35396 | 35026 ft | 432 kts | 222° |
| 2026-04-25 15:57 | 34.84275 | -8.39998 | 35034 ft | 432 kts | 222° |
| 2026-04-25 15:57 | 34.79607 | -8.44590 | 35038 ft | 431 kts | 222° |
| 2026-04-25 15:58 | 34.74937 | -8.49171 | 35042 ft | 431 kts | 222° |
| 2026-04-25 15:58 | 34.70263 | -8.53747 | 35042 ft | 431 kts | 222° |
| 2026-04-25 15:59 | 34.65597 | -8.58312 | 35035 ft | 431 kts | 222° |
| 2026-04-25 15:59 | 34.60933 | -8.62874 | 35033 ft | 430 kts | 222° |
| 2026-04-25 16:00 | 34.57048 | -8.66659 | 35031 ft | 430 kts | 222° |
| 2026-04-25 16:00 | 34.51588 | -8.71960 | 35020 ft | 430 kts | 221° |
| 2026-04-25 16:01 | 34.46917 | -8.76499 | 35020 ft | 430 kts | 221° |
| 2026-04-25 16:01 | 34.42250 | -8.81038 | 35021 ft | 430 kts | 221° |
| 2026-04-25 16:02 | 34.37565 | -8.85556 | 35016 ft | 430 kts | 221° |
| 2026-04-25 16:02 | 34.32869 | -8.90052 | 35019 ft | 430 kts | 221° |
| 2026-04-25 16:03 | 34.28174 | -8.94536 | 35021 ft | 430 kts | 221° |
| 2026-04-25 16:03 | 34.23488 | -8.99036 | 35021 ft | 430 kts | 221° |
| 2026-04-25 16:04 | 34.18799 | -9.03531 | 35020 ft | 430 kts | 221° |
| 2026-04-25 16:04 | 34.14105 | -9.08004 | 35018 ft | 430 kts | 221° |
| 2026-04-25 16:05 | 34.09410 | -9.12486 | 35007 ft | 430 kts | 220° |
| 2026-04-25 16:06 | 34.02367 | -9.19185 | 35015 ft | 430 kts | 220° |
| 2026-04-25 16:06 | 33.97669 | -9.23652 | 35017 ft | 430 kts | 220° |
| 2026-04-25 16:07 | 33.92970 | -9.28113 | 35016 ft | 430 kts | 220° |
| 2026-04-25 16:07 | 33.88274 | -9.32568 | 35017 ft | 430 kts | 220° |
| 2026-04-25 16:08 | 33.83572 | -9.37021 | 35010 ft | 430 kts | 220° |
| 2026-04-25 16:08 | 33.78866 | -9.41464 | 35015 ft | 430 kts | 220° |
| 2026-04-25 16:09 | 33.74193 | -9.45873 | 35012 ft | 430 kts | 220° |
| 2026-04-25 16:09 | 33.69460 | -9.50334 | 35014 ft | 429 kts | 220° |
| 2026-04-25 16:10 | 33.64787 | -9.54722 | 35017 ft | 429 kts | 220° |
| 2026-04-25 16:10 | 33.60095 | -9.59125 | 35016 ft | 429 kts | 220° |
| 2026-04-25 16:11 | 33.55395 | -9.63540 | 35012 ft | 429 kts | 220° |
| 2026-04-25 16:11 | 33.50700 | -9.67934 | 35008 ft | 428 kts | 219° |
| 2026-04-25 16:12 | 33.46002 | -9.72337 | 35009 ft | 428 kts | 219° |
| 2026-04-25 16:12 | 33.41306 | -9.76724 | 35009 ft | 428 kts | 219° |
| 2026-04-25 16:13 | 33.36601 | -9.81111 | 35004 ft | 428 kts | 219° |
| 2026-04-25 16:13 | 33.31907 | -9.85488 | 35012 ft | 428 kts | 219° |
| 2026-04-25 16:14 | 33.27210 | -9.89847 | 35010 ft | 427 kts | 219° |
| 2026-04-25 16:14 | 33.22513 | -9.94207 | 35011 ft | 427 kts | 219° |
| 2026-04-25 16:15 | 33.17832 | -9.98557 | 35009 ft | 427 kts | 219° |
| 2026-04-25 16:15 | 33.13154 | -10.02898 | 35011 ft | 426 kts | 219° |
| 2026-04-25 16:16 | 33.08467 | -10.07234 | 35015 ft | 426 kts | 218° |
| 2026-04-25 16:16 | 33.03782 | -10.11552 | 35006 ft | 426 kts | 219° |
| 2026-04-25 16:17 | 32.99102 | -10.15870 | 35006 ft | 426 kts | 219° |
| 2026-04-25 16:17 | 32.94410 | -10.20185 | 35001 ft | 426 kts | 218° |
| 2026-04-25 16:18 | 32.89729 | -10.24491 | 35008 ft | 425 kts | 219° |
| 2026-04-25 16:18 | 32.85042 | -10.28793 | 35004 ft | 425 kts | 219° |
| 2026-04-25 16:19 | 32.80363 | -10.33087 | 35002 ft | 425 kts | 218° |
| 2026-04-25 16:19 | 32.75680 | -10.37369 | 35006 ft | 425 kts | 218° |
| 2026-04-25 16:20 | 32.68653 | -10.43776 | 35011 ft | 424 kts | 218° |
| 2026-04-25 16:21 | 32.61633 | -10.50173 | 35007 ft | 423 kts | 218° |
| 2026-04-25 16:21 | 32.56963 | -10.54423 | 35005 ft | 423 kts | 218° |
| 2026-04-25 16:22 | 32.52297 | -10.58664 | 35002 ft | 423 kts | 218° |
| 2026-04-25 16:22 | 32.47630 | -10.62899 | 35001 ft | 422 kts | 218° |
| 2026-04-25 16:23 | 32.42968 | -10.67119 | 34995 ft | 422 kts | 218° |
| 2026-04-25 16:23 | 32.38299 | -10.71339 | 34985 ft | 423 kts | 218° |
| 2026-04-25 16:24 | 32.33621 | -10.75577 | 34983 ft | 424 kts | 217° |
| 2026-04-25 16:24 | 32.28940 | -10.79802 | 34989 ft | 424 kts | 217° |
| 2026-04-25 16:25 | 32.24245 | -10.84036 | 34985 ft | 424 kts | 217° |
| 2026-04-25 16:25 | 32.19549 | -10.88257 | 34987 ft | 425 kts | 217° |
| 2026-04-25 16:26 | 32.14854 | -10.92476 | 34993 ft | 425 kts | 217° |
| 2026-04-25 16:26 | 32.10151 | -10.96705 | 34999 ft | 424 kts | 216° |
| 2026-04-25 16:27 | 32.05454 | -11.00917 | 34996 ft | 424 kts | 217° |
| 2026-04-25 16:27 | 32.00752 | -11.05132 | 34995 ft | 424 kts | 217° |
| 2026-04-25 16:28 | 31.96057 | -11.09332 | 34996 ft | 424 kts | 217° |
| 2026-04-25 16:28 | 31.91364 | -11.13526 | 35001 ft | 423 kts | 216° |
| 2026-04-25 16:29 | 31.86662 | -11.17718 | 34995 ft | 424 kts | 216° |
| 2026-04-25 16:29 | 31.81966 | -11.21896 | 34992 ft | 424 kts | 217° |
| 2026-04-25 16:30 | 31.77275 | -11.26069 | 35000 ft | 423 kts | 217° |
| 2026-04-25 16:30 | 31.72583 | -11.30245 | 34999 ft | 422 kts | 217° |
| 2026-04-25 16:31 | 31.67909 | -11.34421 | 34996 ft | 423 kts | 217° |
| 2026-04-25 16:31 | 31.63223 | -11.38600 | 34995 ft | 423 kts | 217° |
| 2026-04-25 16:32 | 31.58539 | -11.42768 | 34996 ft | 423 kts | 217° |
| 2026-04-25 16:32 | 31.53850 | -11.46925 | 34985 ft | 423 kts | 216° |
| 2026-04-25 16:33 | 31.49155 | -11.51092 | 34982 ft | 423 kts | 217° |
| 2026-04-25 16:33 | 31.44463 | -11.55248 | 34986 ft | 423 kts | 217° |
| 2026-04-25 16:34 | 31.39761 | -11.59411 | 34986 ft | 423 kts | 216° |
| 2026-04-25 16:34 | 31.35064 | -11.63563 | 34987 ft | 424 kts | 216° |
| 2026-04-25 16:35 | 31.30363 | -11.67706 | 34988 ft | 423 kts | 216° |
| 2026-04-25 16:35 | 31.25655 | -11.71855 | 34987 ft | 423 kts | 217° |
| 2026-04-25 16:36 | 31.20940 | -11.76007 | 34976 ft | 426 kts | 217° |
| 2026-04-25 16:36 | 31.16204 | -11.80174 | 34970 ft | 427 kts | 217° |
| 2026-04-25 16:37 | 31.11445 | -11.84355 | 34974 ft | 428 kts | 217° |
| 2026-04-25 16:37 | 31.06683 | -11.88535 | 34976 ft | 429 kts | 217° |
| 2026-04-25 16:38 | 31.02715 | -11.92012 | 34987 ft | 429 kts | 217° |
| 2026-04-25 16:38 | 30.97940 | -11.96190 | 34989 ft | 430 kts | 217° |
| 2026-04-25 16:39 | 30.93145 | -12.00373 | 34974 ft | 431 kts | 217° |
| 2026-04-25 16:39 | 30.88338 | -12.04563 | 34983 ft | 433 kts | 216° |
| 2026-04-25 16:40 | 30.83523 | -12.08763 | 34989 ft | 433 kts | 216° |
| 2026-04-25 16:40 | 30.78700 | -12.12968 | 34995 ft | 433 kts | 217° |
| 2026-04-25 16:41 | 30.73880 | -12.17157 | 34998 ft | 433 kts | 217° |
| 2026-04-25 16:41 | 30.66646 | -12.23435 | 35000 ft | 433 kts | 217° |
| 2026-04-25 16:42 | 30.61823 | -12.27614 | 35012 ft | 431 kts | 217° |
| 2026-04-25 16:42 | 30.57019 | -12.31770 | 35014 ft | 430 kts | 217° |
| 2026-04-25 16:43 | 30.52226 | -12.35914 | 35020 ft | 429 kts | 218° |
| 2026-04-25 16:43 | 30.47441 | -12.40049 | 35018 ft | 429 kts | 217° |
| 2026-04-25 16:44 | 30.42645 | -12.44171 | 35008 ft | 429 kts | 217° |
| 2026-04-25 16:44 | 30.37849 | -12.48272 | 35010 ft | 429 kts | 217° |
| 2026-04-25 16:45 | 30.33048 | -12.52381 | 35011 ft | 429 kts | 218° |
| 2026-04-25 16:45 | 30.28263 | -12.56487 | 35011 ft | 428 kts | 218° |
| 2026-04-25 16:46 | 30.23468 | -12.60591 | 35000 ft | 428 kts | 219° |
| 2026-04-25 16:46 | 30.19454 | -12.64019 | 35006 ft | 428 kts | 218° |
| 2026-04-25 16:47 | 30.13882 | -12.68763 | 35010 ft | 428 kts | 219° |
| 2026-04-25 16:47 | 30.08966 | -12.72665 | 35009 ft | 430 kts | 212° |
| 2026-04-25 16:48 | 30.03740 | -12.76014 | 35003 ft | 430 kts | 210° |
| 2026-04-25 16:48 | 29.98505 | -12.79353 | 35005 ft | 430 kts | 210° |
| 2026-04-25 16:49 | 29.93256 | -12.82701 | 34806 ft | 431 kts | 211° |
| 2026-04-25 16:49 | 29.90628 | -12.84375 | 34560 ft | 431 kts | 210° |
| 2026-04-25 16:49 | 29.88009 | -12.86042 | 34323 ft | 430 kts | 212° |
| 2026-04-25 16:50 | 29.85399 | -12.87706 | 34092 ft | 428 kts | 211° |
| 2026-04-25 16:50 | 29.82803 | -12.89362 | 33835 ft | 427 kts | 210° |
| 2026-04-25 16:50 | 29.80206 | -12.91019 | 33564 ft | 425 kts | 210° |
| 2026-04-25 16:50 | 29.77624 | -12.92665 | 33299 ft | 423 kts | 209° |
| 2026-04-25 16:51 | 29.75047 | -12.94303 | 33020 ft | 422 kts | 212° |
| 2026-04-25 16:51 | 29.72487 | -12.95929 | 32758 ft | 420 kts | 210° |
| 2026-04-25 16:51 | 29.69964 | -12.97530 | 32503 ft | 418 kts | 211° |
| 2026-04-25 16:51 | 29.68247 | -12.98619 | 32333 ft | 418 kts | 211° |
| 2026-04-25 16:52 | 29.64855 | -13.00766 | 31988 ft | 414 kts | 211° |
| 2026-04-25 16:52 | 29.62322 | -13.02368 | 31729 ft | 414 kts | 211° |
| 2026-04-25 16:52 | 29.59805 | -13.03965 | 31483 ft | 413 kts | 209° |
| 2026-04-25 16:52 | 29.57297 | -13.05558 | 31236 ft | 411 kts | 211° |
| 2026-04-25 16:53 | 29.52301 | -13.08729 | 30753 ft | 409 kts | 209° |
| 2026-04-25 16:53 | 29.49811 | -13.10304 | 30508 ft | 406 kts | 211° |
| 2026-04-25 16:53 | 29.47350 | -13.11855 | 30086 ft | 402 kts | 210° |
| 2026-04-25 16:54 | 29.44906 | -13.13395 | 29543 ft | 399 kts | 212° |
| 2026-04-25 16:54 | 29.42485 | -13.14922 | 29081 ft | 394 kts | 211° |
| 2026-04-25 16:54 | 29.40092 | -13.16431 | 28618 ft | 390 kts | 211° |
| 2026-04-25 16:54 | 29.37756 | -13.17904 | 28160 ft | 387 kts | 212° |
| 2026-04-25 16:55 | 29.35399 | -13.19373 | 27718 ft | 384 kts | 211° |
| 2026-04-25 16:55 | 29.33026 | -13.20749 | 27278 ft | 381 kts | 208° |
| 2026-04-25 16:55 | 29.30638 | -13.22056 | 26846 ft | 379 kts | 207° |
| 2026-04-25 16:55 | 29.28270 | -13.23318 | 26411 ft | 376 kts | 208° |
| 2026-04-25 16:56 | 29.25899 | -13.24580 | 25975 ft | 373 kts | 207° |
| 2026-04-25 16:56 | 29.23561 | -13.25834 | 25531 ft | 370 kts | 208° |
| 2026-04-25 16:56 | 29.21241 | -13.27093 | 25094 ft | 368 kts | 208° |
| 2026-04-25 16:56 | 29.18928 | -13.28357 | 24620 ft | 369 kts | 208° |
| 2026-04-25 16:57 | 29.16609 | -13.29631 | 24131 ft | 370 kts | 208° |
| 2026-04-25 16:57 | 29.15043 | -13.30491 | 23797 ft | 369 kts | 208° |
| 2026-04-25 16:57 | 29.11979 | -13.32173 | 23097 ft | 368 kts | 208° |
| 2026-04-25 16:57 | 29.09679 | -13.33434 | 22606 ft | 366 kts | 208° |
| 2026-04-25 16:58 | 29.07394 | -13.34686 | 22135 ft | 363 kts | 208° |
| 2026-04-25 16:58 | 29.05118 | -13.35930 | 21662 ft | 362 kts | 207° |
| 2026-04-25 16:58 | 29.02850 | -13.37168 | 21180 ft | 360 kts | 209° |
| 2026-04-25 16:58 | 29.00593 | -13.38396 | 20707 ft | 359 kts | 208° |
| 2026-04-25 16:59 | 28.98339 | -13.39622 | 20236 ft | 358 kts | 208° |
| 2026-04-25 16:59 | 28.96094 | -13.40846 | 19764 ft | 357 kts | 209° |
| 2026-04-25 16:59 | 28.93852 | -13.42070 | 19293 ft | 357 kts | 208° |
| 2026-04-25 16:59 | 28.91608 | -13.43294 | 18819 ft | 357 kts | 208° |
| 2026-04-25 17:00 | 28.89366 | -13.44516 | 18345 ft | 357 kts | 208° |
| 2026-04-25 17:00 | 28.87125 | -13.45737 | 17840 ft | 357 kts | 209° |
| 2026-04-25 17:00 | 28.84885 | -13.46958 | 17361 ft | 356 kts | 208° |
| 2026-04-25 17:00 | 28.82660 | -13.48168 | 16911 ft | 354 kts | 208° |
| 2026-04-25 17:01 | 28.80435 | -13.49377 | 16451 ft | 353 kts | 208° |
| 2026-04-25 17:01 | 28.78215 | -13.50582 | 15985 ft | 353 kts | 208° |
| 2026-04-25 17:01 | 28.76006 | -13.51780 | 15524 ft | 352 kts | 208° |
| 2026-04-25 17:01 | 28.73793 | -13.52980 | 15063 ft | 352 kts | 208° |
| 2026-04-25 17:02 | 28.71584 | -13.54180 | 14597 ft | 351 kts | 208° |
| 2026-04-25 17:02 | 28.69386 | -13.55375 | 14183 ft | 350 kts | 208° |
| 2026-04-25 17:02 | 28.67194 | -13.56566 | 13728 ft | 349 kts | 208° |
| 2026-04-25 17:02 | 28.65014 | -13.57748 | 13248 ft | 347 kts | 207° |
| 2026-04-25 17:03 | 28.62842 | -13.58922 | 12835 ft | 343 kts | 208° |
| 2026-04-25 17:03 | 28.60679 | -13.60091 | 12362 ft | 342 kts | 207° |
| 2026-04-25 17:03 | 28.58532 | -13.61249 | 11889 ft | 340 kts | 208° |
| 2026-04-25 17:03 | 28.56395 | -13.62405 | 11410 ft | 340 kts | 207° |
| 2026-04-25 17:04 | 28.54268 | -13.63556 | 10945 ft | 338 kts | 208° |
| 2026-04-25 17:04 | 28.52147 | -13.64690 | 10505 ft | 336 kts | 206° |
| 2026-04-25 17:04 | 28.50025 | -13.65761 | 10228 ft | 329 kts | 205° |
| 2026-04-25 17:04 | 28.47958 | -13.66759 | 10113 ft | 317 kts | 204° |
| 2026-04-25 17:05 | 28.45877 | -13.67450 | 9995 ft | 308 kts | 189° |
| 2026-04-25 17:05 | 28.41741 | -13.67139 | 9680 ft | 291 kts | 173° |
| 2026-04-25 17:05 | 28.39756 | -13.66821 | 9429 ft | 286 kts | 173° |
| 2026-04-25 17:06 | 28.37791 | -13.66514 | 9067 ft | 285 kts | 173° |
| 2026-04-25 17:06 | 28.35858 | -13.66101 | 8727 ft | 283 kts | 162° |
| 2026-04-25 17:06 | 28.34075 | -13.65179 | 8337 ft | 282 kts | 150° |
| 2026-04-25 17:06 | 28.32355 | -13.64103 | 8018 ft | 279 kts | 150° |
| 2026-04-25 17:07 | 28.30665 | -13.63054 | 7964 ft | 277 kts | 150° |
| 2026-04-25 17:07 | 28.28990 | -13.62017 | 7910 ft | 274 kts | 150° |
| 2026-04-25 17:07 | 28.27320 | -13.60983 | 7841 ft | 273 kts | 150° |
| 2026-04-25 17:07 | 28.25649 | -13.59953 | 7703 ft | 273 kts | 153° |
| 2026-04-25 17:08 | 28.23875 | -13.59269 | 7580 ft | 266 kts | 171° |
| 2026-04-25 17:08 | 28.22044 | -13.59194 | 7453 ft | 263 kts | 187° |
| 2026-04-25 17:08 | 28.20223 | -13.59458 | 7339 ft | 264 kts | 188° |
| 2026-04-25 17:08 | 28.18407 | -13.59725 | 7166 ft | 262 kts | 188° |
| 2026-04-25 17:09 | 28.16602 | -13.59988 | 6907 ft | 261 kts | 188° |
| 2026-04-25 17:09 | 28.14804 | -13.60248 | 6645 ft | 259 kts | 187° |
| 2026-04-25 17:09 | 28.13028 | -13.60505 | 6380 ft | 258 kts | 187° |
| 2026-04-25 17:09 | 28.11276 | -13.60922 | 6084 ft | 256 kts | 204° |
| 2026-04-25 17:10 | 28.09807 | -13.61975 | 5818 ft | 246 kts | 229° |
| 2026-04-25 17:10 | 28.08883 | -13.63541 | 5566 ft | 236 kts | 253° |
| 2026-04-25 17:10 | 28.08604 | -13.65328 | 5313 ft | 228 kts | 277° |
| 2026-04-25 17:10 | 28.08949 | -13.67037 | 5093 ft | 220 kts | 299° |
| 2026-04-25 17:11 | 28.09777 | -13.68467 | 4895 ft | 218 kts | 310° |
| 2026-04-25 17:11 | 28.10691 | -13.69834 | 4699 ft | 217 kts | 309° |
| 2026-04-25 17:11 | 28.11597 | -13.71200 | 4495 ft | 216 kts | 309° |
| 2026-04-25 17:11 | 28.12493 | -13.72555 | 4290 ft | 214 kts | 309° |
| 2026-04-25 17:12 | 28.13379 | -13.73898 | 4089 ft | 213 kts | 309° |
| 2026-04-25 17:12 | 28.14263 | -13.75236 | 3888 ft | 211 kts | 309° |
| 2026-04-25 17:12 | 28.15143 | -13.76566 | 3695 ft | 210 kts | 310° |
| 2026-04-25 17:12 | 28.16019 | -13.77888 | 3498 ft | 209 kts | 310° |
| 2026-04-25 17:13 | 28.16889 | -13.79202 | 3296 ft | 208 kts | 310° |
| 2026-04-25 17:13 | 28.17170 | -13.79627 | 3232 ft | 208 kts | 310° |
| 2026-04-25 17:13 | 28.18616 | -13.81817 | 2894 ft | 206 kts | 310° |
| 2026-04-25 17:13 | 28.19472 | -13.83113 | 2772 ft | 206 kts | 311° |
| 2026-04-25 17:14 | 28.20390 | -13.84351 | 2729 ft | 204 kts | 321° |
| 2026-04-25 17:14 | 28.21437 | -13.85436 | 2731 ft | 205 kts | 321° |
| 2026-04-25 17:14 | 28.22538 | -13.86481 | 2725 ft | 208 kts | 332° |
| 2026-04-25 17:14 | 28.23892 | -13.87032 | 2728 ft | 208 kts | 354° |
| 2026-04-25 17:15 | 28.25325 | -13.87040 | 2726 ft | 204 kts | 2° |
| 2026-04-25 17:15 | 28.26732 | -13.86989 | 2726 ft | 200 kts | 2° |
| 2026-04-25 17:15 | 28.28131 | -13.86942 | 2732 ft | 202 kts | 2° |
| 2026-04-25 17:15 | 28.29496 | -13.86897 | 2727 ft | 189 kts | 2° |
| 2026-04-25 17:16 | 28.30783 | -13.86854 | 2594 ft | 183 kts | 2° |
| 2026-04-25 17:16 | 28.32036 | -13.86813 | 2392 ft | 177 kts | 2° |
| 2026-04-25 17:16 | 28.33236 | -13.86773 | 2194 ft | 167 kts | 2° |
| 2026-04-25 17:16 | 28.34355 | -13.86737 | 1961 ft | 155 kts | 2° |
| 2026-04-25 17:17 | 28.35370 | -13.86704 | 1763 ft | 140 kts | 3° |
| 2026-04-25 17:17 | 28.36333 | -13.86672 | 1597 ft | 137 kts | 1° |
| 2026-04-25 17:17 | 28.37273 | -13.86641 | 1402 ft | 136 kts | 2° |
| 2026-04-25 17:17 | 28.38225 | -13.86609 | 1224 ft | 136 kts | 4° |
| 2026-04-25 17:18 | 28.39141 | -13.86579 | 1054 ft | 134 kts | 6° |
| 2026-04-25 17:18 | 28.40086 | -13.86566 | 896 ft | 134 kts | 5° |
| 2026-04-25 17:18 | 28.41014 | -13.86567 | 677 ft | 131 kts | 8° |
| 2026-04-25 17:18 | 28.41931 | -13.86523 | 529 ft | 131 kts | 8° |
| 2026-04-25 17:19 | 28.42861 | -13.86466 | 333 ft | 132 kts | 6° |
| 2026-04-25 17:19 | 28.43782 | -13.86432 | 163 ft | 130 kts | 7° |
| 2026-04-25 17:19 | 28.44672 | -13.86395 | 87 ft | 126 kts | 6° |
| 2026-04-25 17:19 | 28.45448 | -13.86370 | 82 ft | 91 kts | 1° |
| 2026-04-25 17:20 | 28.45787 | -13.86359 | 91 ft | 19 kts | 1° |
| 2026-04-25 17:20 | 28.45912 | -13.86365 | 90 ft | 17 kts | 347° |
| 2026-04-25 17:20 | 28.46023 | -13.86404 | 92 ft | 17 kts | 337° |
| 2026-04-25 17:20 | 28.46116 | -13.86458 | 95 ft | 12 kts | 332° |
| 2026-04-25 17:21 | 28.46141 | -13.86519 | 98 ft | 6 kts | 253° |
| 2026-04-25 17:21 | 28.46091 | -13.86543 | 98 ft | 10 kts | 181° |
| 2026-04-25 17:21 | 28.46039 | -13.86545 | 98 ft | 13 kts | 181° |
| 2026-04-25 17:21 | 28.45927 | -13.86549 | 98 ft | 11 kts | 182° |
| 2026-04-25 17:22 | 28.45876 | -13.86551 | 98 ft | 11 kts | 182° |
| 2026-04-25 17:22 | 28.45819 | -13.86552 | 98 ft | 14 kts | 181° |
| 2026-04-25 17:22 | 28.45697 | -13.86556 | 97 ft | 13 kts | 181° |
| 2026-04-25 17:22 | 28.45613 | -13.86559 | 96 ft | 12 kts | 181° |
| 2026-04-25 17:23 | 28.45534 | -13.86561 | 96 ft | 11 kts | 181° |
| 2026-04-25 17:23 | 28.45463 | -13.86563 | 98 ft | 10 kts | 181° |
| 2026-04-25 17:23 | 28.45382 | -13.86566 | 96 ft | 14 kts | 181° |
| 2026-04-25 17:23 | 28.45290 | -13.86569 | 96 ft | 13 kts | 182° |
| 2026-04-25 17:24 | 28.45211 | -13.86572 | 95 ft | 10 kts | 182° |
| 2026-04-25 17:24 | 28.45143 | -13.86574 | 95 ft | 9 kts | 182° |
| 2026-04-25 17:24 | 28.45101 | -13.86603 | 97 ft | 5 kts | 246° |
| 2026-04-25 17:24 | 28.45099 | -13.86659 | 98 ft | 7 kts | 271° |
| 2026-04-25 17:25 | 28.45097 | -13.86718 | 98 ft | 7 kts | 253° |
| 2026-04-25 17:25 | 28.45060 | -13.86747 | 99 ft | 6 kts | 207° |
| 2026-04-25 17:25 | 28.45049 | -13.86788 | 101 ft | 5 kts | 268° |
| 2026-04-25 17:25 | 28.45050 | -13.86818 | 99 ft | 3 kts | 271° |
| 2026-04-25 17:26 | 28.45050 | -13.86837 | 102 ft | 2 kts | 271° |
| 2026-04-25 17:26 | 28.45051 | -13.86844 | 102 ft | 0 kts | 271° |
| 2026-04-25 17:26 | 28.45051 | -13.86845 | 102 ft | 0 kts | 271° |